createdAt,value
2023-04-02T00:00:59.074Z,95.26
2023-04-02T00:03:26.471Z,94.75
2023-04-02T00:05:56.186Z,93.06
2023-04-02T00:08:26.838Z,93.02
2023-04-02T00:10:55.184Z,92.68
2023-04-02T00:13:25.551Z,92.65
2023-04-02T00:15:56.966Z,92.69
2023-04-02T00:18:25.300Z,94.19
2023-04-02T00:20:54.532Z,94.54
2023-04-02T00:23:21.776Z,93.67
2023-04-02T00:25:50.795Z,94.17
2023-04-02T00:28:19.241Z,93.80
2023-04-02T00:30:47.739Z,94.46
2023-04-02T00:33:16.860Z,94.76
2023-04-02T00:35:44.209Z,95.12
2023-04-02T00:38:18.706Z,95.40
2023-04-02T00:40:46.938Z,94.42
2023-04-02T00:43:17.039Z,94.04
2023-04-02T00:45:51.140Z,93.78
2023-04-02T00:48:26.974Z,93.72
2023-04-02T00:50:55.420Z,93.35
2023-04-02T00:53:25.007Z,93.61
2023-04-02T00:55:52.659Z,92.05
2023-04-02T00:58:26.199Z,91.83
2023-04-02T01:00:53.966Z,91.64
2023-04-02T01:03:35.120Z,91.65
2023-04-02T01:06:10.792Z,91.91
2023-04-02T01:08:44.914Z,92.44
2023-04-02T01:11:18.186Z,94.41
2023-04-02T01:13:52.506Z,94.08
2023-04-02T01:16:23.654Z,93.46
2023-04-02T01:18:53.945Z,93.42
2023-04-02T01:21:42.222Z,92.99
2023-04-02T01:24:10.316Z,92.60
2023-04-02T01:26:45.634Z,91.70
2023-04-02T01:29:15.074Z,90.34
2023-04-02T01:31:42.950Z,91.17
2023-04-02T01:34:13.048Z,91.93
2023-04-02T01:36:42.219Z,91.81
2023-04-02T01:39:13.214Z,91.48
2023-04-02T01:41:43.059Z,91.37
2023-04-02T01:44:12.075Z,91.55
2023-04-02T01:46:42.950Z,90.97
2023-04-02T01:49:12.651Z,90.70
2023-04-02T01:51:43.048Z,89.83
2023-04-02T01:54:10.564Z,91.01
2023-04-02T01:56:37.850Z,90.90
2023-04-02T01:59:05.910Z,90.27
2023-04-02T02:01:36.410Z,91.88
2023-04-02T02:04:05.897Z,92.75
2023-04-02T02:06:33.275Z,91.28
2023-04-02T02:09:03.463Z,91.36
2023-04-02T02:11:31.724Z,91.25
2023-04-02T02:14:00.279Z,91.62
2023-04-02T02:16:28.850Z,91.74
2023-04-02T02:18:57.306Z,91.76
2023-04-02T02:21:29.789Z,91.04
2023-04-02T02:23:57.836Z,91.88
2023-04-02T02:26:27.167Z,91.97
2023-04-02T02:28:57.544Z,90.90
2023-04-02T02:31:28.627Z,92.08
2023-04-02T02:33:58.944Z,89.90
2023-04-02T02:36:30.701Z,90.14
2023-04-02T02:38:59.062Z,90.00
2023-04-02T02:41:31.120Z,89.30
2023-04-02T02:44:01.885Z,89.78
2023-04-02T02:46:29.995Z,88.73
2023-04-02T02:48:58.537Z,87.87
2023-04-02T02:51:28.342Z,88.54
2023-04-02T02:53:58.890Z,88.58
2023-04-02T02:56:26.825Z,87.49
2023-04-02T02:58:54.538Z,89.35
2023-04-02T03:01:21.927Z,89.32
2023-04-02T03:03:50.775Z,90.37
2023-04-02T03:06:20.589Z,87.12
2023-04-02T03:08:52.460Z,89.71
2023-04-02T03:11:26.385Z,89.94
2023-04-02T03:13:56.794Z,90.61
2023-04-02T03:16:26.804Z,92.05
2023-04-02T03:18:56.593Z,91.28
2023-04-02T03:21:28.817Z,91.16
2023-04-02T03:23:58.548Z,90.61
2023-04-02T03:26:31.324Z,90.24
2023-04-02T03:29:00.832Z,89.35
2023-04-02T03:31:32.146Z,90.71
2023-04-02T03:34:00.512Z,90.23
2023-04-02T03:36:29.615Z,91.12
2023-04-02T03:39:00.984Z,89.77
2023-04-02T03:41:32.757Z,89.63
2023-04-02T03:44:02.197Z,88.15
2023-04-02T03:46:32.644Z,89.56
2023-04-02T03:49:01.907Z,87.59
2023-04-02T03:51:31.601Z,88.25
2023-04-02T03:53:59.059Z,88.86
2023-04-02T03:56:29.265Z,88.08
2023-04-02T03:59:07.262Z,88.86
2023-04-02T04:01:38.273Z,87.38
2023-04-02T04:04:07.818Z,89.52
2023-04-02T04:06:36.124Z,88.65
2023-04-02T04:09:08.678Z,89.33
2023-04-02T04:11:37.515Z,88.54
2023-04-02T04:14:08.348Z,88.60
2023-04-02T04:16:42.798Z,87.98
2023-04-02T04:19:18.092Z,87.03
2023-04-02T04:21:47.024Z,89.17
2023-04-02T04:24:20.140Z,89.33
2023-04-02T04:26:49.553Z,87.50
2023-04-02T04:29:27.055Z,88.23
2023-04-02T04:31:55.511Z,87.26
2023-04-02T04:34:25.425Z,87.92
2023-04-02T04:37:01.537Z,88.47
2023-04-02T04:39:31.618Z,89.02
2023-04-02T04:42:01.922Z,87.83
2023-04-02T04:44:37.844Z,88.75
2023-04-02T04:47:08.950Z,88.84
2023-04-02T04:49:40.308Z,90.14
2023-04-02T04:52:09.996Z,91.68
2023-04-02T04:54:38.681Z,91.94
2023-04-02T04:57:07.411Z,89.56
2023-04-02T04:59:40.848Z,91.66
2023-04-02T05:02:11.706Z,90.85
2023-04-02T05:04:40.205Z,89.73
2023-04-02T05:07:10.500Z,87.78
2023-04-02T05:09:39.180Z,86.29
2023-04-02T05:12:10.880Z,86.33
2023-04-02T05:14:43.189Z,87.01
2023-04-02T05:17:14.815Z,87.67
2023-04-02T05:19:44.404Z,86.96
2023-04-02T05:22:18.465Z,87.43
2023-04-02T05:24:51.257Z,86.48
2023-04-02T05:27:26.211Z,86.97
2023-04-02T05:30:00.131Z,85.77
2023-04-02T05:32:29.252Z,86.56
2023-04-02T05:34:57.870Z,87.33
2023-04-02T05:37:27.237Z,86.21
2023-04-02T05:39:56.944Z,84.82
2023-04-02T05:42:25.496Z,86.95
2023-04-02T05:45:02.855Z,88.28
2023-04-02T05:47:32.117Z,88.62
2023-04-02T05:50:13.125Z,88.54
2023-04-02T05:52:43.640Z,88.38
2023-04-02T05:55:28.208Z,87.90
2023-04-02T05:58:17.651Z,88.64
2023-04-02T06:01:04.157Z,89.36
2023-04-02T06:03:39.249Z,88.75
2023-04-02T06:06:14.641Z,89.52
2023-04-02T06:08:43.564Z,88.77
2023-04-02T06:11:12.084Z,86.93
2023-04-02T06:13:39.522Z,85.95
2023-04-02T06:16:07.305Z,88.00
2023-04-02T06:18:36.947Z,87.51
2023-04-02T06:21:05.926Z,87.80
2023-04-02T06:23:36.920Z,87.68
2023-04-02T06:26:05.693Z,89.40
2023-04-02T06:28:36.218Z,89.80
2023-04-02T06:31:07.437Z,89.17
2023-04-02T06:33:36.412Z,88.92
2023-04-02T06:36:04.844Z,88.32
2023-04-02T06:38:33.078Z,88.27
2023-04-02T06:41:02.163Z,88.70
2023-04-02T06:43:35.642Z,88.14
2023-04-02T06:46:06.917Z,87.30
2023-04-02T06:48:38.214Z,87.70
2023-04-02T06:51:07.460Z,88.70
2023-04-02T06:53:36.850Z,90.39
2023-04-02T06:56:05.025Z,87.67
2023-04-02T06:58:32.737Z,88.80
2023-04-02T07:01:00.113Z,86.53
2023-04-02T07:03:28.501Z,87.35
2023-04-02T07:05:57.640Z,87.36
2023-04-02T07:08:25.246Z,86.86
2023-04-02T07:10:52.576Z,85.66
2023-04-02T07:13:20.959Z,85.25
2023-04-02T07:15:49.622Z,85.15
2023-04-02T07:18:22.814Z,85.07
2023-04-02T07:20:52.043Z,86.68
2023-04-02T07:23:21.270Z,85.62
2023-04-02T07:25:48.901Z,85.47
2023-04-02T07:28:16.720Z,86.22
2023-04-02T07:30:44.114Z,86.64
2023-04-02T07:33:13.710Z,84.80
2023-04-02T07:35:41.396Z,84.91
2023-04-02T07:38:08.870Z,84.48
2023-04-02T07:40:37.485Z,85.32
2023-04-02T07:43:05.306Z,84.11
2023-04-02T07:45:33.030Z,83.34
2023-04-02T07:48:04.997Z,84.33
2023-04-02T07:50:32.315Z,83.57
2023-04-02T07:52:59.680Z,82.35
2023-04-02T07:55:26.965Z,81.33
2023-04-02T07:57:56.225Z,83.06
2023-04-02T08:00:23.925Z,81.39
2023-04-02T08:02:51.547Z,82.47
2023-04-02T08:05:19.376Z,83.49
2023-04-02T08:07:53.006Z,83.79
2023-04-02T08:10:20.609Z,83.50
2023-04-02T08:12:47.873Z,83.58
2023-04-02T08:15:16.920Z,84.38
2023-04-02T08:17:44.472Z,84.80
2023-04-02T08:20:15.200Z,83.21
2023-04-02T08:22:42.454Z,81.06
2023-04-02T08:25:10.495Z,79.69
2023-04-02T08:27:38.121Z,78.58
2023-04-02T08:30:06.758Z,79.09
2023-04-02T08:32:35.586Z,79.59
2023-04-02T08:35:02.975Z,79.98
2023-04-02T08:37:30.454Z,79.81
2023-04-02T08:39:57.726Z,77.80
2023-04-02T08:42:30.451Z,77.18
2023-04-02T08:45:24.390Z,79.12
2023-04-02T08:47:56.016Z,77.47
2023-04-02T08:50:29.290Z,77.13
2023-04-02T08:52:57.280Z,77.25
2023-04-02T08:55:30.010Z,75.87
2023-04-02T08:58:02.635Z,76.76
2023-04-02T09:00:35.625Z,77.57
2023-04-02T09:03:09.258Z,75.91
2023-04-02T09:05:40.004Z,74.64
2023-04-02T09:08:17.288Z,73.86
2023-04-02T09:10:50.574Z,74.61
2023-04-02T09:13:22.274Z,75.42
2023-04-02T09:15:50.501Z,74.95
2023-04-02T09:18:20.113Z,75.07
2023-04-02T09:20:49.257Z,74.06
2023-04-02T09:23:17.957Z,73.21
2023-04-02T09:25:51.197Z,74.14
2023-04-02T09:28:28.743Z,74.75
2023-04-02T09:31:07.114Z,73.88
2023-04-02T09:33:46.846Z,74.05
2023-04-02T09:36:27.045Z,72.25
2023-04-02T09:39:02.019Z,74.01
2023-04-02T09:41:30.110Z,75.13
2023-04-02T09:44:13.464Z,75.23
2023-04-02T09:46:48.278Z,76.53
2023-04-02T09:49:18.877Z,77.68
2023-04-02T09:51:46.187Z,77.43
2023-04-02T09:54:16.867Z,77.29
2023-04-02T09:57:00.736Z,78.07
2023-04-02T09:59:28.076Z,78.73
2023-04-02T10:02:00.613Z,77.84
2023-04-02T10:04:44.048Z,78.50
2023-04-02T10:07:30.728Z,78.20
2023-04-02T10:09:58.965Z,76.94
2023-04-02T10:12:27.593Z,77.39
2023-04-02T10:14:57.920Z,75.92
2023-04-02T10:17:28.623Z,76.25
2023-04-02T10:19:59.671Z,76.00
2023-04-02T10:22:29.110Z,74.48
2023-04-02T10:24:56.449Z,74.03
2023-04-02T10:27:29.462Z,74.38
2023-04-02T10:30:03.932Z,74.22
2023-04-02T10:32:33.240Z,73.31
2023-04-02T10:35:03.236Z,74.49
2023-04-02T10:37:49.442Z,73.26
2023-04-02T10:40:20.142Z,72.43
2023-04-02T10:42:53.654Z,73.25
2023-04-02T10:45:24.778Z,72.30
2023-04-02T10:47:54.918Z,72.65
2023-04-02T10:50:31.183Z,72.65
2023-04-02T10:53:03.412Z,72.14
2023-04-02T10:55:33.012Z,72.13
2023-04-02T10:58:04.632Z,72.36
2023-04-02T11:00:34.470Z,72.57
2023-04-02T11:03:06.061Z,72.33
2023-04-02T11:05:40.331Z,71.56
2023-04-02T11:08:12.749Z,70.91
2023-04-02T11:10:44.031Z,71.80
2023-04-02T11:13:16.377Z,71.06
2023-04-02T11:15:43.920Z,72.10
2023-04-02T11:18:22.751Z,72.35
2023-04-02T11:20:58.706Z,70.90
2023-04-02T11:23:28.290Z,71.22
2023-04-02T11:26:10.500Z,72.85
2023-04-02T11:28:37.782Z,71.25
2023-04-02T11:31:05.200Z,71.54
2023-04-02T11:33:44.771Z,72.78
2023-04-02T11:36:31.448Z,71.84
2023-04-02T11:39:10.833Z,72.28
2023-04-02T11:41:59.092Z,72.07
2023-04-02T11:44:26.403Z,73.11
2023-04-02T11:46:53.727Z,72.36
2023-04-02T11:49:54.176Z,72.86
2023-04-02T11:52:23.484Z,71.77
2023-04-02T11:55:02.833Z,72.96
2023-04-02T11:57:38.408Z,72.95
2023-04-02T12:00:18.436Z,72.69
2023-04-02T12:02:54.769Z,70.83
2023-04-02T12:05:28.039Z,71.52
2023-04-02T12:08:05.226Z,71.72
2023-04-02T12:10:35.947Z,72.15
2023-04-02T12:13:03.796Z,69.08
2023-04-02T12:15:43.172Z,68.97
2023-04-02T12:18:18.245Z,67.78
2023-04-02T12:20:50.933Z,67.33
2023-04-02T12:23:20.304Z,69.09
2023-04-02T12:28:48.549Z,68.79
2023-04-02T12:31:17.915Z,68.48
2023-04-02T12:33:53.253Z,67.94
2023-04-02T12:36:22.265Z,68.51
2023-04-02T12:38:52.057Z,69.21
2023-04-02T12:41:27.044Z,66.69
2023-04-02T12:46:52.045Z,66.86
2023-04-02T12:49:26.487Z,65.36
2023-04-02T12:51:55.877Z,64.80
2023-04-02T12:54:34.260Z,64.10
2023-04-02T12:57:18.037Z,63.73
2023-04-02T12:59:48.144Z,63.79
2023-04-02T13:02:20.806Z,64.12
2023-04-02T13:04:48.809Z,64.32
2023-04-02T13:07:17.778Z,64.41
2023-04-02T13:09:46.404Z,63.80
2023-04-02T13:12:25.245Z,63.90
2023-04-02T13:14:54.996Z,62.94
2023-04-02T13:17:38.326Z,63.38
2023-04-02T13:20:24.441Z,63.67
2023-04-02T13:22:51.768Z,64.25
2023-04-02T13:25:22.588Z,64.52
2023-04-02T13:27:49.865Z,63.36
2023-04-02T13:30:22.589Z,64.05
2023-04-02T13:32:50.397Z,64.10
2023-04-02T13:35:17.729Z,65.75
2023-04-02T13:37:45.070Z,64.47
2023-04-02T13:40:14.119Z,65.12
2023-04-02T13:42:42.483Z,63.82
2023-04-02T13:45:17.693Z,61.59
2023-04-02T13:47:46.331Z,61.27
2023-04-02T13:50:18.551Z,60.83
2023-04-02T13:52:46.454Z,61.99
2023-04-02T13:55:15.232Z,61.65
2023-04-02T13:57:42.566Z,61.89
2023-04-02T14:00:10.777Z,63.92
2023-04-02T14:02:43.361Z,63.19
2023-04-02T14:05:18.638Z,62.97
2023-04-02T14:07:53.055Z,63.27
2023-04-02T14:10:23.449Z,64.85
2023-04-02T14:12:59.475Z,65.24
2023-04-02T14:15:34.736Z,65.01
2023-04-02T14:18:14.836Z,65.16
2023-04-02T14:20:51.970Z,63.25
2023-04-02T14:23:26.680Z,64.16
2023-04-02T14:25:58.310Z,65.12
2023-04-02T14:28:31.170Z,64.89
2023-04-02T14:31:03.069Z,65.46
2023-04-02T14:33:36.690Z,65.29
2023-04-02T14:36:13.440Z,65.40
2023-04-02T14:38:45.030Z,65.69
2023-04-02T14:41:16.500Z,65.65
2023-04-02T14:43:46.838Z,65.68
2023-04-02T14:46:17.584Z,65.72
2023-04-02T14:48:50.246Z,65.79
2023-04-02T14:51:24.454Z,66.03
2023-04-02T14:53:56.393Z,65.03
2023-04-02T14:56:24.966Z,65.70
2023-04-02T14:58:55.559Z,64.46
2023-04-02T15:01:24.122Z,64.84
2023-04-02T15:03:55.497Z,64.23
2023-04-02T15:06:25.491Z,63.85
2023-04-02T15:09:08.489Z,64.04
2023-04-02T15:11:38.102Z,64.46
2023-04-02T15:14:07.859Z,64.74
2023-04-02T15:16:36.417Z,65.80
2023-04-02T15:19:05.069Z,64.94
2023-04-02T15:21:55.835Z,63.50
2023-04-02T15:24:31.633Z,63.59
2023-04-02T15:27:09.347Z,64.14
2023-04-02T15:29:44.662Z,62.99
2023-04-02T15:32:18.376Z,63.31
2023-04-02T15:34:51.420Z,64.38
2023-04-02T15:37:24.367Z,63.52
2023-04-02T15:40:00.807Z,65.27
2023-04-02T15:42:30.156Z,64.27
2023-04-02T15:45:06.229Z,64.13
2023-04-02T15:47:38.287Z,64.02
2023-04-02T15:50:15.516Z,64.17
2023-04-02T15:52:52.526Z,65.35
2023-04-02T15:55:23.556Z,63.79
2023-04-02T15:58:05.516Z,64.24
2023-04-02T16:00:34.267Z,64.11
2023-04-02T16:03:12.735Z,65.12
2023-04-02T16:05:43.496Z,64.02
2023-04-02T16:08:20.330Z,63.90
2023-04-02T16:10:47.851Z,64.73
2023-04-02T16:13:18.640Z,65.24
2023-04-02T16:15:48.691Z,65.58
2023-04-02T16:18:18.980Z,65.65
2023-04-02T16:20:48.087Z,64.03
2023-04-02T16:23:18.385Z,63.69
2023-04-02T16:25:53.634Z,63.67
2023-04-02T16:28:24.840Z,63.99
2023-04-02T16:30:56.539Z,63.73
2023-04-02T16:33:29.122Z,62.79
2023-04-02T16:36:01.789Z,63.31
2023-04-02T16:38:38.822Z,64.00
2023-04-02T16:41:10.511Z,62.68
2023-04-02T16:43:44.585Z,62.73
2023-04-02T16:46:28.177Z,62.65
2023-04-02T16:49:03.888Z,63.30
2023-04-02T16:51:38.086Z,63.11
2023-04-02T16:54:11.308Z,63.29
2023-04-02T16:56:46.687Z,62.86
2023-04-02T16:59:18.956Z,63.07
2023-04-02T17:01:51.572Z,62.99
2023-04-02T17:04:26.922Z,63.23
2023-04-02T17:06:58.161Z,64.27
2023-04-02T17:09:32.062Z,63.93
2023-04-02T17:12:04.440Z,63.93
2023-04-02T17:14:35.823Z,63.77
2023-04-02T17:17:07.501Z,63.93
2023-04-02T17:19:35.604Z,63.94
2023-04-02T17:22:07.494Z,64.09
2023-04-02T17:24:39.469Z,63.41
2023-04-02T17:27:12.892Z,63.59
2023-04-02T17:29:42.676Z,64.37
2023-04-02T17:32:15.506Z,64.48
2023-04-02T17:34:42.759Z,63.68
2023-04-02T17:37:16.549Z,62.94
2023-04-02T17:39:50.388Z,62.71
2023-04-02T17:42:21.707Z,63.59
2023-04-02T17:44:54.684Z,63.51
2023-04-02T17:47:23.333Z,63.23
2023-04-02T17:50:00.713Z,64.16
2023-04-02T17:52:30.804Z,63.64
2023-04-02T17:55:04.370Z,64.78
2023-04-02T17:57:48.267Z,64.59
2023-04-02T18:00:30.385Z,65.99
2023-04-02T18:03:10.338Z,65.72
2023-04-02T18:05:39.681Z,64.50
2023-04-02T18:08:14.391Z,65.28
2023-04-02T18:10:47.535Z,65.68
2023-04-02T18:13:22.144Z,65.77
2023-04-02T18:15:56.333Z,66.25
2023-04-02T18:18:36.912Z,65.76
2023-04-02T18:21:07.796Z,66.77
2023-04-02T18:23:39.817Z,66.94
2023-04-02T18:26:13.413Z,67.63
2023-04-02T18:28:49.320Z,65.91
2023-04-02T18:31:20.492Z,67.42
2023-04-02T18:33:58.187Z,66.45
2023-04-02T18:36:27.922Z,67.13
2023-04-02T18:39:00.125Z,67.59
2023-04-02T18:41:38.476Z,68.36
2023-04-02T18:44:14.529Z,67.99
2023-04-02T18:46:45.904Z,68.26
2023-04-02T18:49:20.791Z,67.99
2023-04-02T18:51:50.020Z,67.62
2023-04-02T18:54:19.271Z,67.95
2023-04-02T18:56:48.185Z,67.92
2023-04-02T18:59:26.555Z,67.27
2023-04-02T19:01:55.501Z,68.06
2023-04-02T19:04:26.222Z,67.60
2023-04-02T19:06:55.553Z,67.90
2023-04-02T19:09:24.261Z,68.83
2023-04-02T19:11:53.057Z,69.52
2023-04-02T19:14:21.249Z,69.43
2023-04-02T19:16:59.722Z,68.94
2023-04-02T19:19:27.897Z,70.00
2023-04-02T19:22:02.478Z,69.36
2023-04-02T19:24:36.989Z,68.94
2023-04-02T19:27:08.020Z,68.90
2023-04-02T19:29:43.034Z,68.74
2023-04-02T19:32:15.695Z,68.78
2023-04-02T19:34:46.376Z,69.90
2023-04-02T19:37:16.765Z,70.22
2023-04-02T19:39:52.737Z,69.58
2023-04-02T19:42:24.239Z,70.05
2023-04-02T19:44:52.738Z,69.54
2023-04-02T19:47:21.011Z,70.11
2023-04-02T19:49:48.317Z,69.98
2023-04-02T19:52:15.700Z,69.97
2023-04-02T19:54:42.975Z,69.55
2023-04-02T19:57:13.112Z,69.60
2023-04-02T19:59:41.746Z,69.78
2023-04-02T20:02:10.335Z,69.65
2023-04-02T20:04:37.792Z,69.63
2023-04-02T20:07:05.559Z,70.08
2023-04-02T20:09:32.824Z,70.00
2023-04-02T20:12:00.155Z,69.76
2023-04-02T20:14:27.471Z,69.47
2023-04-02T20:16:56.231Z,69.54
2023-04-02T20:19:26.380Z,70.09
2023-04-02T20:21:53.653Z,69.50
2023-04-02T20:24:20.934Z,69.72
2023-04-02T20:26:48.263Z,69.21
2023-04-02T20:29:15.678Z,68.79
2023-04-02T20:31:42.943Z,69.38
2023-04-02T20:34:11.955Z,68.97
2023-04-02T20:36:39.441Z,68.14
2023-04-02T20:39:09.082Z,68.86
2023-04-02T20:41:36.477Z,68.53
2023-04-02T20:44:03.919Z,68.57
2023-04-02T21:01:10.600Z,68.50
2023-04-02T21:03:39.717Z,68.76
2023-04-02T21:06:07.675Z,68.44
2023-04-02T21:08:35.154Z,68.87
2023-04-02T21:11:03.408Z,67.45
2023-04-02T21:13:31.344Z,67.67
2023-04-02T21:15:58.953Z,67.25
2023-04-02T21:18:27.564Z,66.63
2023-04-02T21:20:59.601Z,66.38
2023-04-02T21:23:27.286Z,65.70
2023-04-02T21:25:58.439Z,65.65
2023-04-02T21:28:25.992Z,66.05
2023-04-02T21:30:53.431Z,65.19
2023-04-02T21:33:20.766Z,65.57
2023-04-02T21:35:50.547Z,65.61
2023-04-02T21:38:17.855Z,65.55
2023-04-02T21:40:45.269Z,65.19
2023-04-02T21:43:12.565Z,65.12
2023-04-02T21:45:39.846Z,64.89
2023-04-02T21:48:07.261Z,65.07
2023-04-02T21:50:34.726Z,65.27
2023-04-02T21:53:03.893Z,64.95
2023-04-02T21:55:31.162Z,64.95
2023-04-02T21:57:58.422Z,64.75
2023-04-02T22:00:26.444Z,65.02
2023-04-02T22:02:53.758Z,64.96
2023-04-02T22:05:21.128Z,65.00
2023-04-02T22:07:48.418Z,64.68
2023-04-02T22:10:17.467Z,64.81
2023-04-02T22:12:44.757Z,64.84
2023-04-02T22:15:12.413Z,64.55
2023-04-02T22:17:39.709Z,64.25
2023-04-02T22:20:07.518Z,64.61
2023-04-02T22:22:34.794Z,64.74
2023-04-02T22:25:03.063Z,65.21
2023-04-02T22:27:31.667Z,65.00
2023-04-02T22:29:58.918Z,63.89
2023-04-02T22:32:26.245Z,64.37
2023-04-02T22:34:53.881Z,64.17
2023-04-02T22:37:21.158Z,64.67
2023-04-02T22:39:48.436Z,64.43
2023-04-02T22:42:15.695Z,64.38
2023-04-02T22:44:44.273Z,65.33
2023-04-02T22:47:11.574Z,65.06
2023-04-02T22:49:38.828Z,64.61
2023-04-02T22:52:06.851Z,64.80
2023-04-02T22:54:34.100Z,64.50
2023-04-02T22:57:01.619Z,65.09
2023-04-02T22:59:28.911Z,64.12
2023-04-02T23:01:57.539Z,64.52
2023-04-02T23:04:24.859Z,64.68
2023-04-02T23:06:52.903Z,64.52
2023-04-02T23:09:20.160Z,63.98
2023-04-02T23:11:47.413Z,64.79
2023-04-02T23:14:14.713Z,63.84
2023-04-02T23:16:41.990Z,63.62
2023-04-02T23:19:10.727Z,63.44
2023-04-02T23:21:38.061Z,62.96
2023-04-02T23:24:05.421Z,63.19
2023-04-02T23:26:32.942Z,63.15
2023-04-02T23:29:02.359Z,63.33
2023-04-02T23:31:29.862Z,62.27
2023-04-02T23:33:57.490Z,62.48
2023-04-02T23:36:26.959Z,62.07
2023-04-02T23:38:55.422Z,62.71
2023-04-02T23:41:23.698Z,61.05
2023-04-02T23:43:51.089Z,62.77
2023-04-02T23:46:18.412Z,61.33
2023-04-02T23:48:46.631Z,61.04
2023-04-02T23:51:14.045Z,60.78
2023-04-02T23:53:43.200Z,60.85
2023-04-02T23:56:10.579Z,60.76
2023-04-02T23:58:37.922Z,60.35
